Decoded Metar for GCRR (LANZAROTE in SPAIN) (IATA:ACE) | Meteo·Mobile Aviation Weather
aviador You're here:

GCRR Decoded Metar

LANZAROTE in SPAIN
Report Time2019-01-17 23:00:00
UTC Time2019-01-17 23:12:35
Flight Rules vfr VFR
Wind350° at 07 kt
W.Decomp.*RWY 03: 5.7 kt HW 4 kt LCW
W.Rank350° ranks 3
Current wind is below 350° avg. (12.7)
Visibility9999 m
Phenomena:N/A
Clouds:Few 036 Hf
Expected CloudBase > 800 ft AGL from Temp-Dew spread
CeilingNone
Temp14°C (ISA -1)
Dew Point12°C (88% RH)
AAT12.1°C
QNH1020 hPa
Density Alt-7 ft
Elevation131 ft
Report Wrong Elevation
Raw Report
GCRR 172300Z 35007KT 9999 FEW036 14/12 Q1020 REDZ=

Extra information for GCRR:More info

Metar Taf Metar & Taf Last 4 Metars F.Rules Stats Wind Profile Meteogram Temp Stats Airport Information Weather charts Add Link Nearby VenuesMetar ALERT Operation Metar Decoded Social comments